createdAt,value
2022-11-24T00:01:26.258Z,4.28
2022-11-24T00:04:00.858Z,4.36
2022-11-24T00:06:28.354Z,4.35
2022-11-24T00:08:55.086Z,4.31
2022-11-24T00:11:24.041Z,4.17
2022-11-24T00:13:50.971Z,4.07
2022-11-24T00:16:20.530Z,4.19
2022-11-24T00:18:49.263Z,4.04
2022-11-24T00:21:17.098Z,3.89
2022-11-24T00:23:44.324Z,3.74
2022-11-24T00:26:13.492Z,3.64
2022-11-24T00:28:41.071Z,3.70
2022-11-24T00:31:18.137Z,3.65
2022-11-24T00:33:46.385Z,3.59
2022-11-24T00:36:13.105Z,3.54
2022-11-24T00:38:39.789Z,3.51
2022-11-24T00:41:06.762Z,3.53
2022-11-24T00:43:33.394Z,3.69
2022-11-24T00:45:59.979Z,3.81
2022-11-24T00:48:26.542Z,3.94
2022-11-24T00:51:01.563Z,4.14
2022-11-24T00:53:28.884Z,4.20
2022-11-24T00:55:55.624Z,4.12
2022-11-24T00:58:23.781Z,4.00
2022-11-24T01:00:51.258Z,3.89
2022-11-24T01:03:19.839Z,3.84
2022-11-24T01:05:46.292Z,3.94
2022-11-24T01:08:12.719Z,3.93
2022-11-24T01:10:39.261Z,3.98
2022-11-24T01:13:06.014Z,4.10
2022-11-24T01:15:35.585Z,4.12
2022-11-24T01:18:02.262Z,4.14
2022-11-24T01:20:28.609Z,4.15
2022-11-24T01:22:54.965Z,4.25
2022-11-24T01:25:21.374Z,4.30
2022-11-24T01:27:47.730Z,4.19
2022-11-24T01:30:14.263Z,4.03
2022-11-24T01:32:40.630Z,3.69
2022-11-24T01:35:07.791Z,3.66
2022-11-24T01:37:34.256Z,3.57
2022-11-24T01:40:00.648Z,3.52
2022-11-24T01:42:37.210Z,3.61
2022-11-24T01:45:42.268Z,3.77
2022-11-24T01:48:38.701Z,3.93
2022-11-24T01:51:12.694Z,4.10
2022-11-24T01:53:43.975Z,4.14
2022-11-24T01:56:12.256Z,4.16
2022-11-24T01:58:41.006Z,4.16
2022-11-24T02:01:08.610Z,4.13
2022-11-24T02:03:39.029Z,4.13
2022-11-24T02:06:21.972Z,4.08
2022-11-24T02:09:00.579Z,4.16
2022-11-24T02:11:33.561Z,4.16
2022-11-24T02:14:00.475Z,4.05
2022-11-24T02:16:27.293Z,3.93
2022-11-24T02:18:53.841Z,3.80
2022-11-24T02:21:20.358Z,3.67
2022-11-24T02:23:46.638Z,3.81
2022-11-24T02:26:44.086Z,3.81
2022-11-24T02:29:12.812Z,3.87
2022-11-24T02:31:44.393Z,3.89
2022-11-24T02:34:10.736Z,3.89
2022-11-24T02:36:37.194Z,3.89
2022-11-24T02:39:05.467Z,4.09
2022-11-24T02:41:31.994Z,4.09
2022-11-24T02:44:02.069Z,3.90
2022-11-24T02:46:28.464Z,3.82
2022-11-24T02:48:55.012Z,3.59
2022-11-24T02:51:21.505Z,3.40
2022-11-24T02:53:47.882Z,3.34
2022-11-24T02:56:14.300Z,3.33
2022-11-24T02:58:40.822Z,3.18
2022-11-24T03:01:07.293Z,3.30
2022-11-24T03:03:33.774Z,3.46
2022-11-24T03:06:00.210Z,3.54
2022-11-24T03:08:26.597Z,3.77
2022-11-24T03:10:52.934Z,3.87
2022-11-24T03:13:19.338Z,4.01
2022-11-24T03:15:45.792Z,3.87
2022-11-24T03:18:12.235Z,3.71
2022-11-24T03:20:38.569Z,3.65
2022-11-24T03:23:05.076Z,3.58
2022-11-24T03:25:31.522Z,3.44
2022-11-24T03:28:00.392Z,3.33
2022-11-24T03:30:26.880Z,3.23
2022-11-24T03:32:53.982Z,3.20
2022-11-24T03:35:21.474Z,3.19
2022-11-24T03:37:47.842Z,3.31
2022-11-24T03:40:14.830Z,3.46
2022-11-24T03:42:41.238Z,3.62
2022-11-24T03:45:44.812Z,3.76
2022-11-24T03:47:54.377Z,3.98
2022-11-24T03:50:20.762Z,4.14
2022-11-24T03:52:47.097Z,4.29
2022-11-24T03:55:13.550Z,4.42
2022-11-24T03:57:39.883Z,4.47
2022-11-24T04:00:06.864Z,4.59
2022-11-24T04:02:33.446Z,4.73
2022-11-24T04:04:59.796Z,4.84
2022-11-24T04:07:26.195Z,4.84
2022-11-24T04:09:52.634Z,4.99
2022-11-24T04:12:37.666Z,4.99
2022-11-24T04:15:04.363Z,4.95
2022-11-24T04:17:30.660Z,5.10
2022-11-24T04:19:56.994Z,5.09
2022-11-24T04:22:23.275Z,5.12
2022-11-24T04:24:49.586Z,5.16
2022-11-24T04:27:15.957Z,5.25
2022-11-24T04:29:42.381Z,5.25
2022-11-24T04:32:08.889Z,5.34
2022-11-24T04:34:36.133Z,5.43
2022-11-24T04:37:02.726Z,5.46
2022-11-24T04:39:29.165Z,5.52
2022-11-24T04:41:55.816Z,5.59
2022-11-24T04:44:22.202Z,5.65
2022-11-24T04:46:48.539Z,5.72
2022-11-24T04:49:15.017Z,5.76
2022-11-24T04:51:41.934Z,5.73
2022-11-24T04:54:11.279Z,5.80
2022-11-24T04:56:37.639Z,5.84
2022-11-24T04:59:08.174Z,5.86
2022-11-24T05:01:35.063Z,5.92
2022-11-24T05:04:01.537Z,5.97
2022-11-24T05:06:27.901Z,6.06
2022-11-24T05:08:54.221Z,6.09
2022-11-24T05:11:20.562Z,6.05
2022-11-24T05:13:46.892Z,6.11
2022-11-24T05:16:13.217Z,6.17
2022-11-24T05:18:39.599Z,6.23
2022-11-24T05:21:09.113Z,6.25
2022-11-24T05:23:35.709Z,6.33
2022-11-24T05:26:02.292Z,6.32
2022-11-24T05:28:29.145Z,6.37
2022-11-24T05:30:59.458Z,6.50
2022-11-24T05:33:28.421Z,6.49
2022-11-24T05:35:54.934Z,6.52
2022-11-24T05:38:22.558Z,6.52
2022-11-24T05:40:48.973Z,6.53
2022-11-24T05:43:16.605Z,6.53
2022-11-24T05:45:44.148Z,6.58
2022-11-24T05:48:13.401Z,6.56
2022-11-24T05:50:40.309Z,6.68
2022-11-24T05:53:09.548Z,6.69
2022-11-24T05:55:36.429Z,6.75
2022-11-24T05:58:05.160Z,6.76
2022-11-24T06:00:33.294Z,6.82
2022-11-24T06:03:00.274Z,6.93
2022-11-24T06:05:28.218Z,6.90
2022-11-24T06:07:55.176Z,6.87
2022-11-24T06:10:23.893Z,6.87
2022-11-24T06:12:50.737Z,6.85
2022-11-24T06:15:17.344Z,6.89
2022-11-24T06:17:43.939Z,6.95
2022-11-24T06:20:11.119Z,6.98
2022-11-24T06:22:38.089Z,6.97
2022-11-24T06:25:04.756Z,7.07
2022-11-24T06:27:31.118Z,7.00
2022-11-24T06:29:57.725Z,6.95
2022-11-24T06:32:24.177Z,6.91
2022-11-24T06:34:50.506Z,6.92
2022-11-24T06:37:16.971Z,6.99
2022-11-24T06:39:43.298Z,7.11
2022-11-24T06:42:09.646Z,7.06
2022-11-24T06:44:36.211Z,6.96
2022-11-24T06:47:02.761Z,6.94
2022-11-24T06:49:29.248Z,6.93
2022-11-24T06:51:55.790Z,7.01
2022-11-24T06:54:22.182Z,7.14
2022-11-24T06:56:48.579Z,7.05
2022-11-24T06:59:20.421Z,7.20
2022-11-24T07:01:46.992Z,7.12
2022-11-24T07:04:13.975Z,7.00
2022-11-24T07:06:41.258Z,7.00
2022-11-24T07:09:12.132Z,7.00
2022-11-24T07:11:39.550Z,7.15
2022-11-24T07:14:06.150Z,7.05
2022-11-24T07:16:33.257Z,7.04
2022-11-24T07:19:00.109Z,6.99
2022-11-24T07:21:27.716Z,6.93
2022-11-24T07:23:56.103Z,6.93
2022-11-24T07:26:23.661Z,6.91
2022-11-24T07:28:50.715Z,7.10
2022-11-24T07:31:20.690Z,7.10
2022-11-24T07:33:54.940Z,7.14
2022-11-24T07:36:22.555Z,7.18
2022-11-24T07:38:49.217Z,7.09
2022-11-24T07:41:17.848Z,7.04
2022-11-24T07:43:44.182Z,6.95
2022-11-24T07:46:14.014Z,6.98
2022-11-24T07:48:40.765Z,7.00
2022-11-24T07:51:08.240Z,7.16
2022-11-24T07:53:35.553Z,7.07
2022-11-24T07:56:04.852Z,7.37
2022-11-24T07:58:33.478Z,7.34
2022-11-24T08:01:00.621Z,7.29
2022-11-24T08:03:27.569Z,7.24
2022-11-24T08:08:45.232Z,7.32
2022-11-24T08:11:16.963Z,7.44
2022-11-24T08:13:44.210Z,7.52
2022-11-24T08:16:13.413Z,7.61
2022-11-24T08:18:39.859Z,7.73
2022-11-24T08:21:07.050Z,7.85
2022-11-24T08:23:34.096Z,7.97
2022-11-24T08:26:09.106Z,7.98
2022-11-24T08:28:36.009Z,8.08
2022-11-24T08:31:04.968Z,8.15
2022-11-24T08:33:31.544Z,8.22
2022-11-24T08:36:03.668Z,8.38
2022-11-24T08:38:30.008Z,8.53
2022-11-24T08:41:00.889Z,8.63
2022-11-24T08:43:27.234Z,8.89
2022-11-24T08:45:53.702Z,8.96
2022-11-24T08:48:20.053Z,9.02
2022-11-24T08:50:46.397Z,9.06
2022-11-24T08:53:12.798Z,9.17
2022-11-24T08:55:39.086Z,9.29
2022-11-24T08:58:05.360Z,9.41
2022-11-24T09:00:31.767Z,9.56
2022-11-24T09:02:58.866Z,9.62
2022-11-24T09:05:50.619Z,9.60
2022-11-24T09:08:12.041Z,9.64
2022-11-24T09:10:38.446Z,9.72
2022-11-24T09:13:04.795Z,9.68
2022-11-24T09:15:31.088Z,9.58
2022-11-24T09:17:57.614Z,9.49
2022-11-24T09:20:24.109Z,9.47
2022-11-24T09:22:50.491Z,9.59
2022-11-24T09:25:17.172Z,9.71
2022-11-24T09:27:43.466Z,9.96
2022-11-24T09:30:10.458Z,10.13
2022-11-24T09:32:37.577Z,10.28
2022-11-24T09:35:04.351Z,10.29
2022-11-24T09:37:32.929Z,10.12
2022-11-24T09:39:59.453Z,10.07
2022-11-24T09:42:53.936Z,9.96
2022-11-24T09:46:04.065Z,9.92
2022-11-24T09:48:30.848Z,10.01
2022-11-24T09:51:00.897Z,10.16
2022-11-24T09:53:56.932Z,10.24
2022-11-24T09:56:29.897Z,10.38
2022-11-24T09:59:05.219Z,10.45
2022-11-24T10:01:41.677Z,10.42
2022-11-24T10:04:19.454Z,10.45
2022-11-24T10:07:09.524Z,10.51
2022-11-24T10:10:06.207Z,10.60
2022-11-24T10:12:57.141Z,10.68
2022-11-24T10:15:34.780Z,10.95
2022-11-24T10:18:16.400Z,11.29
2022-11-24T10:21:25.725Z,11.59
2022-11-24T10:24:23.128Z,11.97
2022-11-24T10:27:02.007Z,12.41
2022-11-24T10:29:40.338Z,12.58
2022-11-24T10:32:31.817Z,12.54
2022-11-24T10:35:14.862Z,12.54
2022-11-24T10:37:51.069Z,12.49
2022-11-24T10:40:56.953Z,12.45
2022-11-24T10:43:26.732Z,12.55
2022-11-24T10:45:53.300Z,12.45
2022-11-24T10:48:26.059Z,12.22
2022-11-24T10:51:08.160Z,12.19
2022-11-24T10:53:35.862Z,12.07
2022-11-24T10:56:05.069Z,11.98
2022-11-24T10:58:38.415Z,11.95
2022-11-24T11:01:14.320Z,11.73
2022-11-24T11:03:57.988Z,11.54
2022-11-24T11:06:27.014Z,11.42
2022-11-24T11:09:18.958Z,11.21
2022-11-24T11:11:48.241Z,11.27
2022-11-24T11:14:31.161Z,11.45
2022-11-24T11:16:57.935Z,11.52
2022-11-24T11:19:50.363Z,11.49
2022-11-24T11:22:26.588Z,11.46
2022-11-24T11:25:09.310Z,11.33
2022-11-24T11:27:36.549Z,11.24
2022-11-24T11:36:10.668Z,11.47
2022-11-24T11:38:39.555Z,11.82
2022-11-24T11:41:13.860Z,12.07
2022-11-24T11:43:41.262Z,12.21
2022-11-24T11:46:18.277Z,12.45
2022-11-24T11:48:46.741Z,12.44
2022-11-24T11:51:31.688Z,12.74
2022-11-24T11:54:12.978Z,12.72
2022-11-24T11:56:45.899Z,12.41
2022-11-24T11:59:41.730Z,12.29
2022-11-24T12:02:26.011Z,12.13
2022-11-24T12:05:20.408Z,12.08
2022-11-24T12:08:21.543Z,12.13
2022-11-24T12:10:59.805Z,12.07
2022-11-24T12:13:44.536Z,12.00
2022-11-24T12:16:35.009Z,12.22
2022-11-24T12:19:16.609Z,12.24
2022-11-24T12:21:50.226Z,12.42
2022-11-24T12:24:55.145Z,12.39
2022-11-24T12:27:33.183Z,12.76
2022-11-24T12:30:12.414Z,12.79
2022-11-24T12:32:44.953Z,12.76
2022-11-24T12:35:14.434Z,12.68
2022-11-24T12:37:58.417Z,12.71
2022-11-24T12:41:33.715Z,12.76
2022-11-24T12:43:55.235Z,12.79
2022-11-24T12:46:30.352Z,12.70
2022-11-24T12:49:06.107Z,12.64
2022-11-24T12:51:37.323Z,12.46
2022-11-24T12:54:10.319Z,12.48
2022-11-24T12:56:49.326Z,12.42
2022-11-24T12:59:39.340Z,12.38
2022-11-24T13:02:20.815Z,12.36
2022-11-24T13:04:51.821Z,12.39
2022-11-24T13:07:37.862Z,12.46
2022-11-24T13:10:46.476Z,12.61
2022-11-24T13:13:13.300Z,12.51
2022-11-24T13:16:34.561Z,12.49
2022-11-24T13:18:55.627Z,12.56
2022-11-24T13:21:29.250Z,12.55
2022-11-24T13:24:02.322Z,12.56
2022-11-24T13:26:32.420Z,12.57
2022-11-24T13:29:13.357Z,12.47
2022-11-24T13:31:50.589Z,12.38
2022-11-24T13:34:38.930Z,12.14
2022-11-24T13:37:40.539Z,11.89
2022-11-24T13:40:29.661Z,11.81
2022-11-24T13:42:56.104Z,11.57
2022-11-24T13:45:45.041Z,11.53
2022-11-24T13:48:21.434Z,11.64
2022-11-24T13:50:51.760Z,11.75
2022-11-24T13:53:31.878Z,11.97
2022-11-24T13:56:00.530Z,12.16
2022-11-24T13:58:51.033Z,12.19
2022-11-24T14:01:20.286Z,12.07
2022-11-24T14:04:34.006Z,11.94
2022-11-24T14:07:09.035Z,11.78
2022-11-24T14:09:48.153Z,11.63
2022-11-24T14:12:25.353Z,11.48
2022-11-24T14:14:56.574Z,11.36
2022-11-24T14:17:26.655Z,11.22
2022-11-24T14:19:57.502Z,11.12
2022-11-24T14:22:43.161Z,10.94
2022-11-24T14:25:24.861Z,10.88
2022-11-24T14:27:51.236Z,10.73
2022-11-24T14:30:21.814Z,10.59
2022-11-24T14:32:58.189Z,10.49
2022-11-24T14:35:33.123Z,10.42
2022-11-24T14:38:02.305Z,10.32
2022-11-24T14:40:37.901Z,10.22
2022-11-24T14:43:20.806Z,10.07
2022-11-24T14:45:56.565Z,9.93
2022-11-24T14:48:28.618Z,9.79
2022-11-24T14:51:06.249Z,9.55
2022-11-24T14:53:34.010Z,9.37
2022-11-24T14:56:09.249Z,9.19
2022-11-24T14:58:41.773Z,9.08
2022-11-24T15:01:11.291Z,9.01
2022-11-24T15:03:37.782Z,8.90
2022-11-24T15:06:04.299Z,8.79
2022-11-24T15:08:46.674Z,8.64
2022-11-24T15:11:13.788Z,8.45
2022-11-24T15:13:51.080Z,8.42
2022-11-24T15:16:20.466Z,8.21
2022-11-24T15:18:48.361Z,8.13
2022-11-24T15:21:19.197Z,7.94
2022-11-24T15:24:06.044Z,7.81
2022-11-24T15:26:38.242Z,7.67
2022-11-24T15:29:07.949Z,7.59
2022-11-24T15:31:34.336Z,7.46
2022-11-24T15:34:00.684Z,7.32
2022-11-24T15:36:27.015Z,7.18
2022-11-24T15:38:53.340Z,7.09
2022-11-24T15:41:22.142Z,7.01
2022-11-24T15:43:48.670Z,6.95
2022-11-24T15:46:15.819Z,6.94
2022-11-24T15:48:42.204Z,6.93
2022-11-24T15:51:14.891Z,6.87
2022-11-24T15:53:46.475Z,6.81
2022-11-24T15:56:20.630Z,6.71
2022-11-24T15:58:46.909Z,6.59
2022-11-24T16:01:13.338Z,6.57
2022-11-24T16:03:47.072Z,6.52
2022-11-24T16:06:24.211Z,6.43
2022-11-24T16:08:52.127Z,6.36
2022-11-24T16:11:18.462Z,6.39
2022-11-24T16:13:51.490Z,6.29
2022-11-24T16:16:19.203Z,6.22
2022-11-24T16:18:45.822Z,6.10
2022-11-24T16:21:12.256Z,6.08
2022-11-24T16:23:38.912Z,6.05
2022-11-24T16:26:05.959Z,5.94
2022-11-24T16:28:32.967Z,5.94
2022-11-24T16:30:59.340Z,5.88
2022-11-24T16:33:25.720Z,5.80
2022-11-24T16:35:52.128Z,5.73
2022-11-24T16:38:19.874Z,5.65
2022-11-24T16:40:58.456Z,5.58
2022-11-24T16:43:24.890Z,5.61
2022-11-24T16:46:17.863Z,5.54
2022-11-24T16:48:45.733Z,5.49
2022-11-24T16:51:13.394Z,5.41
2022-11-24T16:53:40.655Z,5.37
2022-11-24T16:56:07.189Z,5.31
2022-11-24T16:58:36.353Z,5.40
2022-11-24T17:01:04.557Z,5.25
2022-11-24T17:03:33.347Z,5.33
2022-11-24T17:06:01.002Z,5.26
2022-11-24T17:08:30.759Z,5.17
2022-11-24T17:10:57.171Z,5.19
2022-11-24T17:13:24.137Z,5.14
2022-11-24T17:15:54.150Z,5.23
2022-11-24T17:18:25.201Z,5.15
2022-11-24T17:20:52.023Z,5.10
2022-11-24T17:23:19.430Z,5.03
2022-11-24T17:25:45.902Z,4.97
2022-11-24T17:28:12.253Z,4.88
2022-11-24T17:30:38.598Z,4.89
2022-11-24T17:33:05.706Z,4.91
2022-11-24T17:35:34.586Z,4.87
2022-11-24T17:38:01.260Z,4.79
2022-11-24T17:40:29.305Z,4.72
2022-11-24T17:43:00.464Z,4.68
2022-11-24T17:45:28.213Z,4.62
2022-11-24T17:47:56.042Z,4.56
2022-11-24T17:50:25.646Z,4.53
2022-11-24T17:52:53.558Z,4.59
2022-11-24T17:55:19.959Z,4.54
2022-11-24T17:57:46.315Z,4.50
2022-11-24T18:00:13.388Z,4.55
2022-11-24T18:02:39.794Z,4.62
2022-11-24T18:05:06.753Z,4.57
2022-11-24T18:07:36.280Z,4.62
2022-11-24T18:10:03.209Z,4.83
2022-11-24T18:12:29.545Z,4.94
2022-11-24T18:14:55.875Z,5.17
2022-11-24T18:17:22.270Z,5.28
2022-11-24T18:19:48.574Z,5.48
2022-11-24T18:22:14.953Z,5.66
2022-11-24T18:24:41.320Z,5.67
2022-11-24T18:27:07.664Z,5.66
2022-11-24T18:29:33.985Z,5.65
2022-11-24T18:32:00.375Z,5.68
2022-11-24T18:34:26.722Z,5.65
2022-11-24T18:36:53.173Z,5.56
2022-11-24T18:39:19.602Z,5.52
2022-11-24T18:41:46.582Z,5.42
2022-11-24T18:44:12.999Z,5.30
2022-11-24T18:46:39.578Z,5.19
2022-11-24T18:49:06.959Z,5.15
2022-11-24T18:51:33.883Z,5.02
2022-11-24T18:54:02.046Z,4.96
2022-11-24T18:56:28.398Z,4.89
2022-11-24T18:58:56.472Z,5.09
2022-11-24T19:01:28.369Z,5.06
2022-11-24T19:03:59.445Z,5.04
2022-11-24T19:06:31.790Z,4.90
2022-11-24T19:08:59.733Z,4.81
2022-11-24T19:11:28.993Z,4.86
2022-11-24T19:13:56.420Z,4.83
2022-11-24T19:16:23.362Z,4.72
2022-11-24T19:18:54.107Z,4.79
2022-11-24T19:21:21.832Z,4.68
2022-11-24T19:23:49.202Z,4.66
2022-11-24T19:26:15.484Z,4.59
2022-11-24T19:28:41.892Z,4.48
2022-11-24T19:31:11.550Z,4.40
2022-11-24T19:33:38.204Z,4.33
2022-11-24T19:36:04.848Z,4.34
2022-11-24T19:38:32.745Z,4.29
2022-11-24T19:41:06.661Z,4.29
2022-11-24T19:43:33.977Z,4.29
2022-11-24T19:46:06.104Z,4.25
2022-11-24T19:48:34.488Z,4.19
2022-11-24T19:51:01.826Z,4.25
2022-11-24T19:53:28.984Z,4.22
2022-11-24T19:55:55.774Z,4.19
2022-11-24T19:58:22.113Z,4.36
2022-11-24T20:00:48.455Z,4.42
2022-11-24T20:03:14.989Z,4.41
2022-11-24T20:05:41.264Z,4.33
2022-11-24T20:08:07.701Z,4.19
2022-11-24T20:10:34.037Z,4.25
2022-11-24T20:13:00.380Z,4.23
2022-11-24T20:15:26.672Z,4.52
2022-11-24T20:17:53.039Z,4.62
2022-11-24T20:20:19.328Z,4.76
2022-11-24T20:22:46.440Z,5.07
2022-11-24T20:25:12.760Z,5.19
2022-11-24T20:27:39.046Z,5.16
2022-11-24T20:30:06.220Z,5.21
2022-11-24T20:32:32.519Z,5.28
2022-11-24T20:34:58.895Z,5.37
2022-11-24T20:37:25.812Z,5.40
2022-11-24T20:39:52.456Z,5.54
2022-11-24T20:42:18.831Z,5.52
2022-11-24T20:44:45.115Z,5.54
2022-11-24T20:47:11.527Z,5.62
2022-11-24T20:49:37.860Z,5.72
2022-11-24T20:52:04.478Z,5.71
2022-11-24T20:54:30.819Z,5.72
2022-11-24T20:56:57.233Z,5.71
2022-11-24T20:59:25.068Z,5.58
2022-11-24T21:01:52.450Z,5.52
2022-11-24T21:04:22.530Z,5.66
2022-11-24T21:06:49.620Z,5.85
2022-11-24T21:09:16.777Z,5.86
2022-11-24T21:11:43.118Z,5.78
2022-11-24T21:14:10.230Z,5.76
2022-11-24T21:16:38.933Z,5.75
2022-11-24T21:19:08.568Z,5.96
2022-11-24T21:21:37.333Z,6.07
2022-11-24T21:24:06.376Z,6.15
2022-11-24T21:26:37.195Z,6.18
2022-11-24T21:29:03.840Z,6.17
2022-11-24T21:31:34.075Z,6.19
2022-11-24T21:34:00.431Z,6.23
2022-11-24T21:36:26.832Z,6.18
2022-11-24T21:38:55.944Z,6.23
2022-11-24T21:41:24.535Z,6.13
2022-11-24T21:43:57.264Z,6.05
2022-11-24T21:46:24.798Z,6.07
2022-11-24T21:48:51.150Z,6.02
2022-11-24T21:51:20.035Z,5.99
2022-11-24T21:53:47.477Z,5.76
2022-11-24T21:56:17.022Z,5.48
2022-11-24T21:58:48.842Z,5.38
2022-11-24T22:01:17.247Z,5.14
2022-11-24T22:03:43.836Z,4.93
2022-11-24T22:06:10.222Z,4.82
2022-11-24T22:08:36.719Z,4.84
2022-11-24T22:11:06.492Z,4.92
2022-11-24T22:13:33.542Z,4.70
2022-11-24T22:16:02.439Z,4.51
2022-11-24T22:18:33.936Z,4.38
2022-11-24T22:21:02.797Z,4.24
2022-11-24T22:23:30.733Z,4.02
2022-11-24T22:26:02.828Z,3.87
2022-11-24T22:28:36.212Z,3.82
2022-11-24T22:31:13.459Z,3.74
2022-11-24T22:33:39.873Z,3.68
2022-11-24T22:36:07.616Z,3.62
2022-11-24T22:38:34.514Z,3.53
2022-11-24T22:41:02.834Z,3.52
2022-11-24T22:43:31.533Z,3.42
2022-11-24T22:45:57.889Z,3.41
2022-11-24T22:48:24.339Z,3.32
2022-11-24T22:50:50.628Z,3.32
2022-11-24T22:53:16.902Z,3.24
2022-11-24T22:55:45.617Z,3.13
2022-11-24T22:58:11.917Z,3.17
2022-11-24T23:00:38.296Z,3.13
2022-11-24T23:03:04.678Z,3.06
2022-11-24T23:05:32.897Z,2.96
2022-11-24T23:07:59.266Z,2.84
2022-11-24T23:10:25.615Z,2.81
2022-11-24T23:12:51.938Z,2.85
2022-11-24T23:15:18.244Z,2.86
2022-11-24T23:17:44.527Z,2.87
2022-11-24T23:20:11.790Z,3.04
2022-11-24T23:22:38.099Z,3.05
2022-11-24T23:25:04.726Z,3.15
2022-11-24T23:27:31.046Z,3.12
2022-11-24T23:29:57.478Z,2.94
2022-11-24T23:32:23.823Z,2.82
2022-11-24T23:34:50.210Z,2.74
2022-11-24T23:37:16.620Z,2.64
2022-11-24T23:39:42.957Z,2.67
2022-11-24T23:42:09.290Z,2.68
2022-11-24T23:44:35.728Z,2.73
2022-11-24T23:47:02.297Z,2.96
2022-11-24T23:49:29.099Z,3.31
2022-11-24T23:51:55.385Z,3.47
2022-11-24T23:54:21.734Z,3.59
2022-11-24T23:56:50.443Z,3.78
2022-11-24T23:59:17.360Z,3.88
